createdAt,value
2018-12-14T00:02:00.369Z,1.45
2018-12-14T00:04:28.240Z,1.56
2018-12-14T00:06:56.148Z,1.48
2018-12-14T00:09:24.015Z,1.38
2018-12-14T00:11:52.040Z,1.43
2018-12-14T00:14:19.969Z,1.28
2018-12-14T00:16:48.388Z,1.38
2018-12-14T00:19:16.458Z,1.41
2018-12-14T00:21:44.167Z,1.39
2018-12-14T00:24:12.308Z,1.29
2018-12-14T00:26:40.248Z,1.41
2018-12-14T00:29:09.964Z,1.43
2018-12-14T00:31:37.907Z,1.48
2018-12-14T00:34:06.671Z,1.39
2018-12-14T00:36:37.258Z,1.39
2018-12-14T00:39:05.727Z,1.41
2018-12-14T00:41:33.667Z,1.46
2018-12-14T00:44:01.858Z,1.42
2018-12-14T00:46:29.953Z,1.50
2018-12-14T00:48:58.014Z,1.44
2018-12-14T00:51:26.096Z,1.36
2018-12-14T00:53:54.020Z,1.22
2018-12-14T00:56:22.034Z,1.38
2018-12-14T00:58:50.077Z,1.44
2018-12-14T01:01:18.242Z,1.42
2018-12-14T01:03:46.108Z,1.51
2018-12-14T01:06:13.971Z,1.45
2018-12-14T01:08:41.963Z,1.45
2018-12-14T01:11:10.052Z,1.36
2018-12-14T01:13:38.095Z,1.29
2018-12-14T01:16:06.786Z,1.50
2018-12-14T01:18:34.726Z,1.40
2018-12-14T01:21:02.594Z,1.38
2018-12-14T01:23:30.458Z,1.29
2018-12-14T01:25:58.324Z,1.31
2018-12-14T01:28:26.215Z,1.17
2018-12-14T01:30:54.180Z,1.15
2018-12-14T01:33:22.146Z,1.21
2018-12-14T01:35:50.012Z,1.12
2018-12-14T01:38:17.877Z,1.11
2018-12-14T01:40:45.743Z,1.22
2018-12-14T01:43:13.734Z,1.14
2018-12-14T01:45:41.674Z,1.08
2018-12-14T01:48:09.984Z,1.17
2018-12-14T01:50:38.210Z,1.27
2018-12-14T01:53:06.445Z,1.16
2018-12-14T01:55:34.413Z,1.22
2018-12-14T01:58:02.383Z,1.39
2018-12-14T02:00:30.094Z,1.26
2018-12-14T02:02:58.283Z,1.21
2018-12-14T02:05:26.376Z,1.16
2018-12-14T02:07:54.315Z,1.00
2018-12-14T02:10:22.181Z,1.07
2018-12-14T02:12:50.371Z,1.11
2018-12-14T02:15:18.472Z,0.99
2018-12-14T02:17:46.453Z,1.10
2018-12-14T02:20:14.397Z,1.15
2018-12-14T02:22:42.691Z,1.11
2018-12-14T02:25:10.724Z,0.99
2018-12-14T02:27:38.815Z,0.89
2018-12-14T02:30:18.655Z,0.87
2018-12-14T02:32:46.506Z,0.99
2018-12-14T02:35:14.362Z,0.91
2018-12-14T02:37:42.228Z,0.87
2018-12-14T02:40:10.247Z,0.79
2018-12-14T02:42:38.284Z,0.89
2018-12-14T02:45:06.674Z,0.91
2018-12-14T02:47:34.664Z,0.84
2018-12-14T02:50:02.406Z,1.04
2018-12-14T02:52:30.247Z,1.00
2018-12-14T02:54:58.364Z,0.98
2018-12-14T02:57:26.744Z,0.91
2018-12-14T02:59:54.468Z,0.88
2018-12-14T03:02:22.661Z,0.81
2018-12-14T03:04:50.625Z,0.82
2018-12-14T03:07:18.590Z,0.83
2018-12-14T03:09:46.530Z,0.72
2018-12-14T03:12:14.397Z,0.76
2018-12-14T03:14:42.262Z,0.69
2018-12-14T03:17:10.496Z,0.75
2018-12-14T03:19:38.566Z,0.60
2018-12-14T03:22:06.637Z,0.70
2018-12-14T03:24:34.675Z,0.70
2018-12-14T03:27:02.644Z,0.60
2018-12-14T03:29:30.648Z,0.63
2018-12-14T03:31:58.582Z,0.73
2018-12-14T03:34:26.587Z,0.54
2018-12-14T03:36:54.554Z,0.50
2018-12-14T03:39:22.419Z,0.69
2018-12-14T03:41:50.389Z,0.70
2018-12-14T03:44:18.377Z,0.69
2018-12-14T03:46:46.521Z,0.69
2018-12-14T03:49:14.607Z,0.71
2018-12-14T03:51:42.648Z,0.48
2018-12-14T03:54:10.750Z,0.60
2018-12-14T03:56:38.779Z,0.50
2018-12-14T03:59:06.890Z,0.57
2018-12-14T04:01:34.812Z,0.49
2018-12-14T04:04:02.827Z,0.37
2018-12-14T04:06:30.818Z,0.51
2018-12-14T04:08:58.735Z,0.41
2018-12-14T04:11:26.699Z,0.43
2018-12-14T04:13:54.691Z,0.48
2018-12-14T04:16:22.630Z,0.40
2018-12-14T04:18:50.822Z,0.43
2018-12-14T04:21:19.087Z,0.51
2018-12-14T04:23:47.051Z,0.34
2018-12-14T04:26:14.917Z,0.34
2018-12-14T04:28:42.782Z,0.33
2018-12-14T04:31:10.649Z,0.42
2018-12-14T04:33:38.689Z,0.44
2018-12-14T04:36:06.709Z,0.20
2018-12-14T04:38:34.646Z,0.22
2018-12-14T04:41:02.636Z,0.32
2018-12-14T04:43:30.738Z,0.20
2018-12-14T04:45:58.470Z,0.25
2018-12-14T04:48:26.333Z,0.30
2018-12-14T04:50:54.324Z,0.19
2018-12-14T04:53:22.410Z,0.38
2018-12-14T04:55:50.454Z,0.31
2018-12-14T04:58:18.553Z,0.14
2018-12-14T05:00:46.586Z,0.25
2018-12-14T05:03:14.695Z,0.39
2018-12-14T05:05:42.543Z,0.24
2018-12-14T05:08:10.529Z,0.23
2018-12-14T05:10:38.473Z,0.23
2018-12-14T05:13:06.415Z,0.11
2018-12-14T05:15:34.281Z,0.17
2018-12-14T05:18:02.271Z,0.24
2018-12-14T05:20:30.236Z,0.21
2018-12-14T05:22:58.651Z,0.13
2018-12-14T05:25:26.642Z,0.17
2018-12-14T05:27:55.198Z,0.13
2018-12-14T05:30:23.049Z,0.19
2018-12-14T05:32:51.140Z,0.21
2018-12-14T05:35:19.180Z,0.19
2018-12-14T05:37:47.246Z,0.13
2018-12-14T05:40:15.211Z,0.33
2018-12-14T05:42:43.221Z,0.26
2018-12-14T05:45:11.089Z,0.49
2018-12-14T05:47:39.159Z,0.38
2018-12-14T05:50:07.375Z,0.33
2018-12-14T05:52:35.443Z,0.42
2018-12-14T05:55:03.875Z,0.36
2018-12-14T05:57:31.820Z,0.48
2018-12-14T05:59:59.785Z,0.36
2018-12-14T06:02:27.792Z,0.40
2018-12-14T06:04:55.843Z,0.54
2018-12-14T06:07:23.934Z,0.38
2018-12-14T06:09:51.975Z,0.49
2018-12-14T06:12:20.215Z,0.54
2018-12-14T06:14:48.655Z,0.61
2018-12-14T06:17:16.670Z,0.50
2018-12-14T06:19:44.557Z,0.67
2018-12-14T06:22:12.976Z,0.58
2018-12-14T06:24:40.738Z,0.68
2018-12-14T06:27:08.682Z,0.52
2018-12-14T06:29:36.781Z,0.54
2018-12-14T06:32:04.814Z,0.56
2018-12-14T06:34:32.783Z,0.76
2018-12-14T06:37:00.950Z,0.75
2018-12-14T06:39:29.067Z,0.69
2018-12-14T06:41:57.957Z,0.63
2018-12-14T06:44:25.994Z,0.55
2018-12-14T06:46:53.958Z,0.59
2018-12-14T06:49:21.823Z,0.52
2018-12-14T06:51:49.689Z,0.69
2018-12-14T06:54:17.555Z,0.81
2018-12-14T06:56:45.459Z,0.94
2018-12-14T06:59:13.611Z,0.80
2018-12-14T07:01:41.706Z,0.78
2018-12-14T07:04:09.818Z,0.80
2018-12-14T07:06:37.833Z,0.91
2018-12-14T07:09:06.739Z,0.78
2018-12-14T07:11:34.795Z,0.64
2018-12-14T07:14:03.652Z,0.78
2018-12-14T07:16:32.495Z,0.89
2018-12-14T07:19:00.661Z,0.79
2018-12-14T07:21:28.576Z,0.70
2018-12-14T07:23:56.567Z,0.62
2018-12-14T07:26:24.464Z,0.80
2018-12-14T07:28:52.944Z,0.90
2018-12-14T07:31:20.665Z,0.83
2018-12-14T07:33:48.655Z,0.77
2018-12-14T07:36:16.747Z,0.67
2018-12-14T07:38:48.131Z,0.79
2018-12-14T07:41:14.577Z,0.96
2018-12-14T07:43:42.567Z,0.68
2018-12-14T07:46:10.533Z,0.91
2018-12-14T07:48:38.724Z,0.83
2018-12-14T07:51:06.664Z,1.03
2018-12-14T07:53:34.655Z,1.15
2018-12-14T07:56:02.756Z,0.84
2018-12-14T07:58:30.736Z,0.91
2018-12-14T08:00:59.152Z,0.98
2018-12-14T08:03:27.144Z,1.03
2018-12-14T08:05:55.109Z,0.95
2018-12-14T08:08:23.100Z,0.83
2018-12-14T08:10:51.040Z,0.93
2018-12-14T08:13:19.529Z,0.88
2018-12-14T08:15:47.736Z,0.96
2018-12-14T08:18:15.499Z,0.99
2018-12-14T08:20:43.334Z,1.31
2018-12-14T08:23:11.498Z,1.22
2018-12-14T08:25:39.613Z,1.24
2018-12-14T08:28:07.576Z,1.19
2018-12-14T08:30:35.443Z,1.12
2018-12-14T08:33:03.406Z,0.99
2018-12-14T08:35:31.347Z,1.00
2018-12-14T08:37:59.413Z,0.96
2018-12-14T08:40:27.425Z,0.98
2018-12-14T08:42:55.496Z,1.11
2018-12-14T08:45:23.462Z,0.95
2018-12-14T08:47:51.844Z,0.91
2018-12-14T08:50:19.710Z,0.82
2018-12-14T08:52:47.631Z,1.04
2018-12-14T08:55:15.498Z,1.08
2018-12-14T08:57:43.515Z,1.43
2018-12-14T09:00:11.853Z,1.27
2018-12-14T09:02:40.320Z,1.39
2018-12-14T09:05:08.188Z,1.33
2018-12-14T09:07:36.327Z,1.26
2018-12-14T09:10:05.568Z,1.13
2018-12-14T09:12:33.558Z,1.03
2018-12-14T09:15:01.721Z,1.19
2018-12-14T09:17:29.564Z,1.15
2018-12-14T09:19:57.455Z,1.37
2018-12-14T09:22:25.420Z,1.28
2018-12-14T09:24:53.513Z,1.41
2018-12-14T09:27:21.599Z,1.40
2018-12-14T09:29:49.642Z,1.43
2018-12-14T09:32:17.858Z,1.18
2018-12-14T09:34:46.001Z,1.26
2018-12-14T09:37:13.939Z,1.17
2018-12-14T09:39:41.934Z,1.17
2018-12-14T09:42:10.030Z,1.46
2018-12-14T09:44:38.012Z,1.48
2018-12-14T09:47:05.956Z,1.65
2018-12-14T09:49:33.892Z,1.47
2018-12-14T09:52:01.759Z,1.64
2018-12-14T09:54:29.624Z,1.65
2018-12-14T09:56:57.491Z,1.66
2018-12-14T09:59:25.502Z,1.38
2018-12-14T10:01:53.572Z,1.49
2018-12-14T10:04:21.486Z,1.52
2018-12-14T10:06:49.408Z,1.56
2018-12-14T10:09:17.377Z,1.64
2018-12-14T10:11:45.385Z,1.57
2018-12-14T10:14:13.520Z,2.07
2018-12-14T10:16:41.593Z,1.64
2018-12-14T10:19:09.706Z,1.56
2018-12-14T10:21:38.347Z,1.52
2018-12-14T10:24:06.263Z,1.50
2018-12-14T10:26:34.128Z,1.61
2018-12-14T10:29:02.153Z,1.65
2018-12-14T10:31:30.162Z,1.63
2018-12-14T10:33:58.151Z,1.50
2018-12-14T10:36:26.342Z,1.94
2018-12-14T10:38:54.281Z,2.13
2018-12-14T10:41:22.176Z,2.23
2018-12-14T10:43:50.013Z,2.01
2018-12-14T10:46:17.933Z,2.04
2018-12-14T10:48:45.796Z,2.15
2018-12-14T10:51:13.759Z,1.82
2018-12-14T10:53:42.024Z,1.91
2018-12-14T10:56:09.990Z,1.69
2018-12-14T10:58:37.857Z,1.58
2018-12-14T11:04:09.002Z,1.95
2018-12-14T11:06:36.993Z,1.98
2018-12-14T11:09:06.151Z,2.24
2018-12-14T11:11:34.180Z,2.23
2018-12-14T11:14:02.214Z,2.01
2018-12-14T11:16:30.179Z,2.14
2018-12-14T11:18:58.045Z,2.32
2018-12-14T11:21:25.911Z,2.17
2018-12-14T11:23:53.777Z,1.88
2018-12-14T11:26:21.644Z,2.13
2018-12-14T11:28:49.655Z,2.17
2018-12-14T11:31:17.656Z,2.19
2018-12-14T11:33:45.800Z,2.10
2018-12-14T11:36:14.030Z,1.97
2018-12-14T11:38:42.747Z,1.78
2018-12-14T11:41:11.012Z,2.08
2018-12-14T11:43:39.080Z,1.77
2018-12-14T11:46:07.020Z,1.76
2018-12-14T11:48:34.886Z,1.99
2018-12-14T11:51:02.876Z,1.76
2018-12-14T11:53:30.983Z,2.06
2018-12-14T11:55:59.874Z,1.57
2018-12-14T11:58:27.598Z,1.60
2018-12-14T12:00:55.606Z,1.57
2018-12-14T12:03:23.604Z,2.03
2018-12-14T12:05:51.719Z,1.98
2018-12-14T12:08:19.885Z,1.65
2018-12-14T12:10:47.877Z,1.63
2018-12-14T12:13:15.961Z,1.62
2018-12-14T12:15:43.981Z,1.72
2018-12-14T12:18:11.948Z,1.77
2018-12-14T12:20:39.812Z,1.74
2018-12-14T12:23:07.677Z,1.65
2018-12-14T12:25:35.546Z,1.87
2018-12-14T12:28:03.409Z,1.77
2018-12-14T12:30:31.435Z,1.73
2018-12-14T12:32:59.567Z,1.78
2018-12-14T12:35:28.181Z,1.58
2018-12-14T12:37:56.122Z,1.51
2018-12-14T12:40:23.987Z,1.69
2018-12-14T12:42:51.853Z,1.60
2018-12-14T12:45:20.287Z,1.56
2018-12-14T12:47:48.550Z,1.66
2018-12-14T12:50:16.622Z,1.58
2018-12-14T12:52:44.665Z,1.48
2018-12-14T12:55:12.764Z,1.43
2018-12-14T12:57:40.822Z,1.50
2018-12-14T13:00:08.763Z,1.63
2018-12-14T13:02:36.627Z,1.47
2018-12-14T13:05:04.844Z,1.47
2018-12-14T13:07:32.835Z,1.77
2018-12-14T13:10:00.749Z,1.58
2018-12-14T13:12:28.692Z,1.60
2018-12-14T13:14:56.682Z,1.57
2018-12-14T13:17:24.791Z,1.42
2018-12-14T13:19:52.658Z,1.45
2018-12-14T13:22:20.703Z,1.49
2018-12-14T13:24:48.592Z,1.55
2018-12-14T13:27:20.292Z,1.44
2018-12-14T13:29:46.576Z,1.41
2018-12-14T13:32:14.516Z,1.45
2018-12-14T13:34:43.132Z,1.67
2018-12-14T13:37:11.397Z,1.73
2018-12-14T13:39:39.343Z,1.79
2018-12-14T13:42:07.206Z,1.58
2018-12-14T13:44:35.252Z,1.41
2018-12-14T13:47:03.145Z,1.37
2018-12-14T13:49:31.325Z,1.73
2018-12-14T13:51:59.266Z,1.66
2018-12-14T13:54:27.909Z,1.53
2018-12-14T13:56:56.148Z,1.52
2018-12-14T13:59:24.255Z,1.75
2018-12-14T14:01:52.254Z,1.69
2018-12-14T14:04:20.398Z,1.38
2018-12-14T14:06:48.385Z,1.68
2018-12-14T14:09:16.300Z,1.65
2018-12-14T14:11:44.267Z,1.39
2018-12-14T14:14:12.275Z,1.56
2018-12-14T14:16:40.322Z,1.68
2018-12-14T14:19:08.264Z,1.54
2018-12-14T14:21:36.129Z,1.55
2018-12-14T14:24:03.996Z,1.56
2018-12-14T14:26:32.810Z,1.50
2018-12-14T14:29:00.906Z,1.54
2018-12-14T14:31:28.968Z,1.40
2018-12-14T14:33:56.948Z,1.31
2018-12-14T14:36:24.917Z,1.32
2018-12-14T14:38:53.039Z,1.38
2018-12-14T14:41:20.910Z,1.18
2018-12-14T14:43:48.770Z,1.37
2018-12-14T14:46:17.202Z,1.69
2018-12-14T14:48:45.066Z,1.49
2018-12-14T14:51:13.139Z,1.31
2018-12-14T14:53:41.210Z,1.25
2018-12-14T14:56:09.224Z,1.29
2018-12-14T14:58:37.189Z,1.36
2018-12-14T15:01:05.206Z,1.26
2018-12-14T15:03:33.573Z,1.08
2018-12-14T15:06:01.711Z,1.13
2018-12-14T15:08:29.702Z,1.39
2018-12-14T15:10:57.693Z,1.30
2018-12-14T15:13:27.683Z,1.21
2018-12-14T15:15:55.697Z,1.26
2018-12-14T15:18:23.740Z,1.23
2018-12-14T15:20:51.838Z,1.21
2018-12-14T15:23:19.871Z,1.28
2018-12-14T15:25:47.836Z,1.24
2018-12-14T15:28:15.702Z,1.12
2018-12-14T15:30:44.292Z,1.21
2018-12-14T15:33:12.259Z,1.23
2018-12-14T15:35:40.124Z,1.49
2018-12-14T15:38:08.815Z,1.23
2018-12-14T15:40:36.880Z,1.17
2018-12-14T15:43:05.075Z,1.19
2018-12-14T15:45:33.370Z,1.01
2018-12-14T15:48:01.603Z,1.22
2018-12-14T15:50:29.695Z,1.07
2018-12-14T15:52:57.788Z,1.17
2018-12-14T15:55:25.524Z,1.18
2018-12-14T15:57:53.491Z,1.24
2018-12-14T16:00:21.580Z,1.32
2018-12-14T16:02:49.332Z,1.43
2018-12-14T16:05:16.984Z,1.23
2018-12-14T16:07:44.762Z,1.26
2018-12-14T16:10:12.500Z,1.25
2018-12-14T16:12:40.237Z,1.12
2018-12-14T16:15:08.458Z,1.18
2018-12-14T16:17:36.367Z,1.12
2018-12-14T16:20:05.893Z,1.21
2018-12-14T16:22:33.605Z,1.23
2018-12-14T16:25:01.282Z,1.24
2018-12-14T16:27:28.967Z,1.27
2018-12-14T16:29:56.621Z,1.32
2018-12-14T16:32:24.316Z,1.19
2018-12-14T16:34:51.960Z,1.28
2018-12-14T16:37:19.635Z,1.23
2018-12-14T16:39:47.289Z,1.30
2018-12-14T16:42:14.979Z,1.34
2018-12-14T16:44:42.700Z,1.16
2018-12-14T16:47:10.414Z,1.19
2018-12-14T16:49:38.064Z,1.10
2018-12-14T16:52:05.834Z,1.04
2018-12-14T16:54:33.575Z,1.02
2018-12-14T16:57:01.767Z,0.98
2018-12-14T16:59:29.735Z,1.03
2018-12-14T17:01:57.599Z,1.09
2018-12-14T17:04:26.196Z,0.94
2018-12-14T17:06:54.479Z,0.95
2018-12-14T17:09:22.571Z,1.12
2018-12-14T17:11:50.610Z,0.98
2018-12-14T17:14:18.904Z,1.12
2018-12-14T17:16:46.841Z,1.10
2018-12-14T17:19:14.708Z,1.26
2018-12-14T17:21:42.575Z,1.17
2018-12-14T17:24:10.439Z,1.22
2018-12-14T17:26:38.305Z,1.21
2018-12-14T17:29:06.321Z,1.15
2018-12-14T17:31:34.396Z,1.29
2018-12-14T17:34:02.304Z,1.09
2018-12-14T17:36:30.243Z,0.95
2018-12-14T17:38:58.258Z,1.00
2018-12-14T17:41:26.271Z,1.01
2018-12-14T17:43:54.191Z,1.19
2018-12-14T17:46:22.330Z,1.25
2018-12-14T17:48:50.446Z,1.12
2018-12-14T17:51:18.413Z,1.03
2018-12-14T17:53:46.402Z,1.04
2018-12-14T17:56:14.343Z,1.03
2018-12-14T17:58:42.959Z,0.97
2018-12-14T18:01:11.028Z,1.29
2018-12-14T18:03:39.216Z,1.20
2018-12-14T18:06:07.157Z,1.13
2018-12-14T18:08:35.221Z,1.10
2018-12-14T18:11:03.187Z,0.98
2018-12-14T18:13:31.052Z,0.99
2018-12-14T18:15:58.917Z,0.84
2018-12-14T18:18:26.927Z,0.86
2018-12-14T18:20:54.848Z,1.01
2018-12-14T18:23:22.990Z,0.94
2018-12-14T18:25:50.904Z,1.11
2018-12-14T18:28:19.009Z,0.88
2018-12-14T18:30:46.987Z,1.01
2018-12-14T18:33:15.127Z,0.93
2018-12-14T18:35:43.223Z,0.97
2018-12-14T18:38:11.296Z,1.11
2018-12-14T18:40:39.224Z,1.03
2018-12-14T18:43:07.093Z,1.06
2018-12-14T18:45:34.894Z,0.96
2018-12-14T18:48:02.821Z,1.04
2018-12-14T18:50:30.813Z,1.08
2018-12-14T18:52:58.752Z,1.17
2018-12-14T18:55:26.643Z,1.15
2018-12-14T18:57:54.510Z,0.99
2018-12-14T19:00:22.354Z,1.11
2018-12-14T19:02:50.215Z,1.24
2018-12-14T19:05:18.156Z,1.21
2018-12-14T19:07:46.022Z,1.20
2018-12-14T19:10:13.937Z,1.05
2018-12-14T19:12:42.028Z,1.17
2018-12-14T19:15:10.527Z,1.01
2018-12-14T19:17:39.188Z,1.08
2018-12-14T19:20:07.126Z,1.03
2018-12-14T19:22:34.991Z,1.10
2018-12-14T19:25:02.982Z,1.27
2018-12-14T19:27:30.925Z,1.29
2018-12-14T19:29:58.814Z,1.11
2018-12-14T19:32:27.079Z,1.01
2018-12-14T19:34:55.092Z,0.38
2018-12-14T19:37:23.137Z,1.14
2018-12-14T19:39:51.238Z,1.16
2018-12-14T19:42:19.204Z,1.26
2018-12-14T19:44:47.158Z,0.98
2018-12-14T19:47:15.273Z,1.27
2018-12-14T19:49:43.389Z,1.02
2018-12-14T19:52:11.696Z,0.95
2018-12-14T19:54:40.173Z,1.20
2018-12-14T19:57:08.335Z,1.37
2018-12-14T19:59:36.301Z,1.16
2018-12-14T20:02:04.389Z,1.05
2018-12-14T20:04:32.408Z,1.21
2018-12-14T20:07:00.723Z,1.02
2018-12-14T20:09:29.490Z,1.02
2018-12-14T20:11:57.582Z,1.21
2018-12-14T20:14:25.650Z,1.11
2018-12-14T20:16:54.351Z,1.06
2018-12-14T20:19:22.219Z,0.97
2018-12-14T20:21:50.085Z,0.93
2018-12-14T20:24:18.082Z,1.07
2018-12-14T20:26:45.919Z,1.15
2018-12-14T20:29:13.939Z,1.01
2018-12-14T20:31:42.078Z,1.09
2018-12-14T20:34:10.440Z,1.38
2018-12-14T20:36:38.717Z,1.24
2018-12-14T20:39:07.495Z,1.12
2018-12-14T20:41:36.143Z,1.42
2018-12-14T20:44:04.633Z,0.94
2018-12-14T20:46:32.598Z,0.95
2018-12-14T20:49:00.788Z,0.91
2018-12-14T20:51:29.089Z,0.95
2018-12-14T20:53:57.160Z,0.82
2018-12-14T20:56:25.129Z,1.02
2018-12-14T20:58:53.303Z,1.03
2018-12-14T21:01:21.042Z,0.79
2018-12-14T21:03:49.308Z,0.85
2018-12-14T21:06:17.233Z,0.99
2018-12-14T21:08:45.365Z,1.02
2018-12-14T21:11:13.455Z,0.90
2018-12-14T21:13:41.527Z,0.88
2018-12-14T21:16:09.561Z,0.83
2018-12-14T21:18:37.873Z,0.82
2018-12-14T21:21:06.150Z,0.94
2018-12-14T21:23:34.208Z,0.88
2018-12-14T21:26:02.148Z,0.74
2018-12-14T21:28:30.363Z,0.90
2018-12-14T21:30:58.334Z,0.93
2018-12-14T21:33:26.175Z,0.85
2018-12-14T21:35:54.010Z,0.88
2018-12-14T21:38:22.128Z,0.83
2018-12-14T21:40:50.068Z,0.93
2018-12-14T21:43:18.176Z,0.72
2018-12-14T21:45:46.098Z,1.09
2018-12-14T21:48:13.964Z,0.81
2018-12-14T21:50:41.856Z,0.92
2018-12-14T21:53:14.413Z,0.90
2018-12-14T21:55:39.962Z,0.82
2018-12-14T21:58:08.576Z,0.83
2018-12-14T22:00:36.570Z,0.91
2018-12-14T22:03:04.908Z,0.98
2018-12-14T22:05:32.849Z,0.97
2018-12-14T22:08:00.789Z,0.89
2018-12-14T22:10:28.599Z,0.70
2018-12-14T22:12:56.846Z,0.77
2018-12-14T22:15:24.811Z,1.00
2018-12-14T22:17:52.710Z,0.98
2018-12-14T22:20:20.518Z,0.72
2018-12-14T22:22:48.459Z,0.59
2018-12-14T22:25:16.326Z,0.81
2018-12-14T22:27:44.465Z,1.07
2018-12-14T22:30:12.412Z,0.84
2018-12-14T22:32:40.596Z,0.75
2018-12-14T22:35:08.536Z,0.74
2018-12-14T22:37:36.477Z,0.72
2018-12-14T22:40:04.841Z,1.00
2018-12-14T22:42:32.886Z,0.71
2018-12-14T22:45:01.050Z,0.70
2018-12-14T22:47:29.016Z,0.85
2018-12-14T22:49:57.005Z,0.98
2018-12-14T22:52:24.947Z,0.88
2018-12-14T22:54:52.812Z,0.78
2018-12-14T22:57:20.678Z,0.67
2018-12-14T22:59:48.594Z,0.82
2018-12-14T23:02:16.734Z,0.88
2018-12-14T23:04:44.698Z,0.72
2018-12-14T23:07:12.567Z,0.68
2018-12-14T23:09:40.775Z,0.75
2018-12-14T23:12:08.823Z,0.78
2018-12-14T23:14:36.918Z,0.67
2018-12-14T23:17:05.378Z,0.56
2018-12-14T23:19:33.319Z,0.82
2018-12-14T23:22:01.237Z,0.54
2018-12-14T23:24:29.377Z,0.37
2018-12-14T23:26:57.363Z,0.54
2018-12-14T23:29:25.406Z,0.49
2018-12-14T23:31:53.272Z,0.38
2018-12-14T23:34:21.138Z,0.41
2018-12-14T23:36:49.149Z,0.55
2018-12-14T23:39:17.193Z,0.31
2018-12-14T23:41:45.291Z,0.41
2018-12-14T23:44:13.327Z,0.57
2018-12-14T23:46:41.294Z,0.61
2018-12-14T23:49:09.157Z,0.51
2018-12-14T23:51:37.579Z,0.41
2018-12-14T23:54:05.590Z,0.41
2018-12-14T23:56:33.803Z,0.62
2018-12-14T23:59:01.769Z,0.52
